createdAt,value
2019-01-26T00:02:16.722Z,12.78
2019-01-26T00:04:48.074Z,9.13
2019-01-26T00:07:19.313Z,16.32
2019-01-26T00:09:50.671Z,16.93
2019-01-26T00:12:20.755Z,21.33
2019-01-26T00:14:52.074Z,10.18
2019-01-26T00:17:23.434Z,19.25
2019-01-26T00:19:53.555Z,27.17
2019-01-26T00:22:24.996Z,14.07
2019-01-26T00:24:56.378Z,30.32
2019-01-26T00:27:27.720Z,35.75
2019-01-26T00:29:59.673Z,25.02
2019-01-26T00:32:31.075Z,16.10
2019-01-26T00:35:02.395Z,50.92
2019-01-26T00:37:33.754Z,39.05
2019-01-26T00:40:05.238Z,64.67
2019-01-26T00:42:36.458Z,26.85
2019-01-26T00:45:10.842Z,34.30
2019-01-26T00:47:42.074Z,18.15
2019-01-26T00:50:14.914Z,9.75
2019-01-26T00:52:46.357Z,36.88
2019-01-26T00:55:17.562Z,32.45
2019-01-26T00:57:48.833Z,25.77
2019-01-26T01:00:21.883Z,33.95
2019-01-26T01:02:53.394Z,26.68
2019-01-26T01:05:24.714Z,39.90
2019-01-26T01:07:58.435Z,16.85
2019-01-26T01:10:29.552Z,24.92
2019-01-26T01:13:00.916Z,15.10
2019-01-26T01:15:32.274Z,16.48
2019-01-26T01:18:04.683Z,26.48
2019-01-26T01:20:38.522Z,28.05
2019-01-26T01:23:10.674Z,29.12
2019-01-26T01:25:41.994Z,29.25
2019-01-26T01:28:13.442Z,27.73
2019-01-26T01:30:43.675Z,37.17
2019-01-26T01:33:17.273Z,10.55
2019-01-26T01:35:48.598Z,17.82
2019-01-26T01:38:19.935Z,12.85
2019-01-26T01:40:51.474Z,20.27
2019-01-26T01:43:22.683Z,20.72
2019-01-26T01:45:53.915Z,23.00
2019-01-26T01:48:25.125Z,20.12
2019-01-26T01:50:56.442Z,21.52
2019-01-26T01:53:27.626Z,31.90
2019-01-26T01:55:58.957Z,10.70
2019-01-26T01:58:30.203Z,19.25
2019-01-26T02:01:01.835Z,6.37
2019-01-26T02:03:33.114Z,20.50
2019-01-26T02:06:04.475Z,5.30
2019-01-26T02:08:35.793Z,18.98
2019-01-26T02:11:07.642Z,24.00
2019-01-26T02:13:38.858Z,31.10
2019-01-26T02:16:10.042Z,7.83
2019-01-26T02:18:41.475Z,28.60
2019-01-26T02:21:12.754Z,41.37
2019-01-26T02:23:44.275Z,23.45
2019-01-26T02:26:15.657Z,17.00
2019-01-26T02:28:46.795Z,36.33
2019-01-26T02:31:18.314Z,17.02
2019-01-26T02:33:49.721Z,16.82
2019-01-26T02:36:21.034Z,17.65
2019-01-26T02:38:52.282Z,22.22
2019-01-26T02:41:22.361Z,19.52
2019-01-26T02:43:53.684Z,28.23
2019-01-26T02:46:23.834Z,47.17
2019-01-26T02:48:55.163Z,49.85
2019-01-26T02:51:27.275Z,49.50
2019-01-26T02:53:57.892Z,29.82
2019-01-26T02:56:29.043Z,41.70
2019-01-26T02:59:00.401Z,16.05
2019-01-26T03:01:33.076Z,17.77
2019-01-26T03:04:04.594Z,18.60
2019-01-26T03:06:38.323Z,42.95
2019-01-26T03:09:10.395Z,41.85
2019-01-26T03:11:41.922Z,29.98
2019-01-26T03:14:13.882Z,20.20
2019-01-26T03:16:43.346Z,57.55
2019-01-26T03:19:14.604Z,21.62
2019-01-26T03:21:45.837Z,39.15
2019-01-26T03:24:15.996Z,30.50
2019-01-26T03:26:47.314Z,19.32
2019-01-26T03:29:18.809Z,42.85
2019-01-26T03:31:49.967Z,31.93
2019-01-26T03:34:21.276Z,24.43
2019-01-26T03:36:52.441Z,40.60
2019-01-26T03:39:23.917Z,50.63
2019-01-26T03:41:55.356Z,9.05
2019-01-26T03:44:26.857Z,33.70
2019-01-26T03:46:58.834Z,53.83
2019-01-26T03:49:30.203Z,37.67
2019-01-26T03:52:01.438Z,39.78
2019-01-26T03:54:32.602Z,42.85
2019-01-26T03:57:04.042Z,24.57
2019-01-26T03:59:35.438Z,68.15
2019-01-26T04:02:09.123Z,70.95
2019-01-26T04:04:40.374Z,108.57
2019-01-26T04:07:11.916Z,111.75
2019-01-26T04:09:43.321Z,62.27
2019-01-26T04:12:13.594Z,114.62
2019-01-26T04:14:43.834Z,95.77
2019-01-26T04:17:21.593Z,70.57
2019-01-26T04:19:47.479Z,58.13
2019-01-26T04:22:19.043Z,64.30
2019-01-26T04:24:50.275Z,56.88
2019-01-26T04:27:21.597Z,61.98
2019-01-26T04:29:53.079Z,78.25
2019-01-26T04:32:23.434Z,125.07
2019-01-26T04:34:53.555Z,83.72
2019-01-26T04:37:24.957Z,66.33
2019-01-26T04:40:00.131Z,107.63
2019-01-26T04:42:31.516Z,136.55
2019-01-26T04:45:01.563Z,103.72
2019-01-26T04:47:33.079Z,115.20
2019-01-26T04:50:04.363Z,133.47
2019-01-26T04:52:35.522Z,87.53
2019-01-26T04:55:07.558Z,52.00
2019-01-26T04:57:39.051Z,44.00
2019-01-26T05:00:18.001Z,47.90
2019-01-26T05:02:49.514Z,70.95
2019-01-26T05:05:20.756Z,53.02
2019-01-26T05:07:52.199Z,45.28
2019-01-26T05:10:24.083Z,45.98
2019-01-26T05:12:56.875Z,75.45
2019-01-26T05:15:28.354Z,70.28
2019-01-26T05:17:59.837Z,37.55
2019-01-26T05:20:31.463Z,33.48
2019-01-26T05:23:01.123Z,28.83
2019-01-26T05:25:31.276Z,31.95
2019-01-26T05:28:02.514Z,85.83
2019-01-26T05:30:33.973Z,102.90
2019-01-26T05:33:05.402Z,98.82
2019-01-26T05:35:36.756Z,78.33
2019-01-26T05:38:08.522Z,77.37
2019-01-26T05:40:38.276Z,85.38
2019-01-26T05:43:10.358Z,51.28
2019-01-26T05:45:41.724Z,59.80
2019-01-26T05:48:13.034Z,42.70
2019-01-26T05:50:44.364Z,86.95
2019-01-26T05:53:15.594Z,97.80
2019-01-26T05:55:46.997Z,121.35
2019-01-26T05:58:17.437Z,102.90
2019-01-26T06:00:48.765Z,120.45
2019-01-26T06:03:19.954Z,121.35
2019-01-26T06:05:51.081Z,139.97
2019-01-26T06:08:23.758Z,75.80
2019-01-26T06:10:55.234Z,105.25
2019-01-26T06:13:26.594Z,172.15
2019-01-26T06:15:56.714Z,179.63
2019-01-26T06:18:26.835Z,113.55
2019-01-26T06:21:00.643Z,208.63
2019-01-26T06:23:32.113Z,143.65
2019-01-26T06:26:03.558Z,95.72
2019-01-26T06:28:34.802Z,67.87
2019-01-26T06:31:04.954Z,99.25
2019-01-26T06:33:35.314Z,141.07
2019-01-26T06:36:06.686Z,116.93
2019-01-26T06:38:41.242Z,113.77
2019-01-26T06:41:12.593Z,102.72
2019-01-26T06:43:45.514Z,107.35
2019-01-26T06:46:17.074Z,125.12
2019-01-26T06:48:49.999Z,136.68
2019-01-26T06:51:21.394Z,114.72
2019-01-26T06:53:52.715Z,96.08
2019-01-26T06:56:23.968Z,100.27
2019-01-26T06:58:54.039Z,89.67
2019-01-26T07:01:25.247Z,45.85
2019-01-26T07:03:56.522Z,64.72
2019-01-26T07:06:29.282Z,82.55
2019-01-26T07:08:59.514Z,115.52
2019-01-26T07:11:30.754Z,92.80
2019-01-26T07:14:01.882Z,95.32
2019-01-26T07:16:33.718Z,117.97
2019-01-26T07:19:05.076Z,61.28
2019-01-26T07:21:36.434Z,63.52
2019-01-26T07:24:08.397Z,43.02
2019-01-26T07:26:39.594Z,57.33
2019-01-26T07:29:09.760Z,119.93
2019-01-26T07:31:41.035Z,51.70
2019-01-26T07:34:12.274Z,97.82
2019-01-26T07:36:43.474Z,91.80
2019-01-26T07:39:14.715Z,27.52
2019-01-26T07:41:45.996Z,92.12
2019-01-26T07:44:17.233Z,43.30
2019-01-26T07:46:48.447Z,57.70
2019-01-26T07:49:20.197Z,84.58
2019-01-26T07:51:51.442Z,110.22
2019-01-26T07:54:22.834Z,74.92
2019-01-26T07:56:54.674Z,61.70
2019-01-26T07:59:26.637Z,90.62
2019-01-26T08:01:57.994Z,58.40
2019-01-26T08:04:28.162Z,67.00
2019-01-26T08:06:59.354Z,42.35
2019-01-26T08:09:29.433Z,76.05
2019-01-26T08:12:00.715Z,113.22
2019-01-26T08:14:31.554Z,132.90
2019-01-26T08:17:03.595Z,73.85
2019-01-26T08:19:34.837Z,88.17
2019-01-26T08:22:06.076Z,123.02
2019-01-26T08:24:37.342Z,133.47
2019-01-26T08:27:08.597Z,174.50
2019-01-26T08:29:39.914Z,583.27
2019-01-26T08:32:11.273Z,95.28
2019-01-26T08:34:42.514Z,160.07
2019-01-26T08:37:14.554Z,161.10
2019-01-26T08:39:45.876Z,106.60
2019-01-26T08:42:16.155Z,99.55
2019-01-26T08:44:47.410Z,97.67
2019-01-26T08:47:18.673Z,74.60
2019-01-26T08:49:50.476Z,79.42
2019-01-26T08:52:21.834Z,82.85
2019-01-26T08:54:51.959Z,95.20
2019-01-26T08:57:23.313Z,103.10
2019-01-26T08:59:54.517Z,109.48
2019-01-26T09:02:43.715Z,104.20
2019-01-26T09:05:18.915Z,107.15
2019-01-26T09:07:50.161Z,89.95
2019-01-26T09:10:21.394Z,103.35
2019-01-26T09:12:52.722Z,131.80
2019-01-26T09:15:24.283Z,132.87
2019-01-26T09:17:55.633Z,125.50
2019-01-26T09:20:25.837Z,134.43
2019-01-26T09:22:57.163Z,137.72
2019-01-26T09:25:28.073Z,130.37
2019-01-26T09:27:59.473Z,145.17
2019-01-26T09:30:30.833Z,132.80
2019-01-26T09:33:02.156Z,128.68
2019-01-26T09:35:33.563Z,110.45
2019-01-26T09:38:04.875Z,119.87
2019-01-26T09:40:36.203Z,111.85
2019-01-26T09:43:07.567Z,131.00
2019-01-26T09:45:39.613Z,117.80
2019-01-26T09:48:11.526Z,134.47
2019-01-26T09:50:43.406Z,99.83
2019-01-26T09:53:15.208Z,103.97
2019-01-26T09:55:46.366Z,106.97
2019-01-26T09:58:17.526Z,129.63
2019-01-26T10:00:48.701Z,127.07
2019-01-26T10:03:20.111Z,125.80
2019-01-26T10:05:51.421Z,145.75
2019-01-26T10:08:21.529Z,143.72
2019-01-26T10:10:51.516Z,137.90
2019-01-26T10:13:22.735Z,113.70
2019-01-26T10:15:53.931Z,140.55
2019-01-26T10:18:25.130Z,153.15
2019-01-26T10:20:57.929Z,148.17
2019-01-26T10:23:29.087Z,132.65
2019-01-26T10:26:00.250Z,136.62
2019-01-26T10:28:31.446Z,121.28
2019-01-26T10:31:03.250Z,146.70
2019-01-26T10:33:34.423Z,96.10
2019-01-26T10:36:07.048Z,120.67
2019-01-26T10:38:39.766Z,156.52
2019-01-26T10:41:12.565Z,132.45
2019-01-26T10:43:45.380Z,120.75
2019-01-26T10:46:16.565Z,129.03
2019-01-26T10:48:47.778Z,143.90
2019-01-26T10:51:18.885Z,112.15
2019-01-26T10:53:50.049Z,139.18
2019-01-26T10:56:21.175Z,152.53
2019-01-26T10:58:52.419Z,149.80
2019-01-26T11:01:23.622Z,160.78
2019-01-26T11:03:54.785Z,141.73
2019-01-26T11:06:25.986Z,131.35
2019-01-26T11:08:57.766Z,120.25
2019-01-26T11:11:29.570Z,120.60
2019-01-26T11:13:59.605Z,255.87
2019-01-26T11:16:30.168Z,119.50
2019-01-26T11:19:07.683Z,115.00
2019-01-26T11:21:34.171Z,98.03
2019-01-26T11:24:04.960Z,73.72
2019-01-26T11:26:36.344Z,101.27
2019-01-26T11:29:07.652Z,85.28
2019-01-26T11:31:39.453Z,103.60
2019-01-26T11:34:10.726Z,98.85
2019-01-26T11:36:41.968Z,111.42
2019-01-26T11:39:15.433Z,101.47
2019-01-26T11:41:46.685Z,111.55
2019-01-26T11:44:17.898Z,103.20
2019-01-26T11:46:49.046Z,80.75
2019-01-26T11:49:20.171Z,86.95
2019-01-26T11:51:52.935Z,99.62
2019-01-26T11:54:24.085Z,104.58
2019-01-26T11:56:56.837Z,86.17
2019-01-26T11:59:28.695Z,68.97
2019-01-26T12:02:01.529Z,71.40
2019-01-26T12:04:37.110Z,52.33
2019-01-26T12:07:09.899Z,57.58
2019-01-26T12:09:41.061Z,60.70
2019-01-26T12:12:11.163Z,58.02
2019-01-26T12:14:44.538Z,74.65
2019-01-26T12:17:15.720Z,96.20
2019-01-26T12:19:46.976Z,74.82
2019-01-26T12:22:19.765Z,71.10
2019-01-26T12:24:50.681Z,55.50
2019-01-26T12:27:22.226Z,71.50
2019-01-26T12:29:54.804Z,71.90
2019-01-26T12:32:26.013Z,49.03
2019-01-26T12:34:56.104Z,75.95
2019-01-26T12:37:26.175Z,101.25
2019-01-26T12:39:57.413Z,98.65
2019-01-26T12:42:28.220Z,96.47
2019-01-26T12:44:59.465Z,121.80
2019-01-26T12:47:31.294Z,118.70
2019-01-26T12:50:02.553Z,125.82
2019-01-26T12:52:32.664Z,79.58
2019-01-26T12:55:03.977Z,54.15
2019-01-26T12:57:34.073Z,123.07
2019-01-26T13:00:05.464Z,79.65
2019-01-26T13:02:36.772Z,94.95
2019-01-26T13:05:09.293Z,92.22
2019-01-26T13:07:39.434Z,132.05
2019-01-26T13:10:17.153Z,113.30
2019-01-26T13:12:49.784Z,107.47
2019-01-26T13:15:21.060Z,106.87
2019-01-26T13:17:51.307Z,93.97
2019-01-26T13:20:22.619Z,111.92
2019-01-26T13:22:54.072Z,115.40
2019-01-26T13:25:25.382Z,117.67
2019-01-26T13:27:58.593Z,115.45
2019-01-26T13:30:29.532Z,115.72
2019-01-26T13:33:00.773Z,88.58
2019-01-26T13:35:31.942Z,47.80
2019-01-26T13:38:03.136Z,103.12
2019-01-26T13:40:37.215Z,104.25
2019-01-26T13:43:09.137Z,111.88
2019-01-26T13:45:39.276Z,106.72
2019-01-26T13:48:10.534Z,129.55
2019-01-26T13:50:41.753Z,132.97
2019-01-26T13:53:12.893Z,135.72
2019-01-26T13:55:44.134Z,125.82
2019-01-26T13:58:15.353Z,121.55
2019-01-26T14:00:48.986Z,115.88
2019-01-26T14:03:20.505Z,131.60
2019-01-26T14:05:53.021Z,121.72
2019-01-26T14:08:24.481Z,100.95
2019-01-26T14:10:55.774Z,114.32
2019-01-26T14:13:26.972Z,130.47
2019-01-26T14:15:58.177Z,134.95
2019-01-26T14:18:29.551Z,133.57
2019-01-26T14:21:03.952Z,126.70
2019-01-26T14:23:35.781Z,127.87
2019-01-26T14:26:06.981Z,128.72
2019-01-26T14:28:38.183Z,160.37
2019-01-26T14:31:08.315Z,168.02
2019-01-26T14:33:39.613Z,141.62
2019-01-26T14:36:13.581Z,147.57
2019-01-26T14:38:45.097Z,143.43
2019-01-26T14:41:16.634Z,152.12
2019-01-26T14:43:48.221Z,162.88
2019-01-26T14:46:19.681Z,164.62
2019-01-26T14:48:53.335Z,173.53
2019-01-26T14:51:24.743Z,175.25
2019-01-26T14:53:57.373Z,150.30
2019-01-26T14:56:28.573Z,168.45
2019-01-26T14:58:58.733Z,157.00
2019-01-26T15:01:29.557Z,174.82
2019-01-26T15:03:59.145Z,157.45
2019-01-26T15:06:29.321Z,170.65
2019-01-26T15:09:00.694Z,179.03
2019-01-26T15:11:32.092Z,198.53
2019-01-26T15:14:02.284Z,200.57
2019-01-26T15:16:32.484Z,217.72
2019-01-26T15:19:02.895Z,182.15
2019-01-26T15:21:34.337Z,213.40
2019-01-26T15:24:05.896Z,166.68
2019-01-26T15:26:37.213Z,147.62
2019-01-26T15:29:08.653Z,150.35
2019-01-26T15:31:40.101Z,195.28
2019-01-26T15:34:11.615Z,197.17
2019-01-26T15:36:44.532Z,173.35
2019-01-26T15:39:16.101Z,170.72
2019-01-26T15:41:48.012Z,205.30
2019-01-26T15:44:19.513Z,167.25
2019-01-26T15:46:49.874Z,217.77
2019-01-26T15:49:21.379Z,258.35
2019-01-26T15:51:52.823Z,266.10
2019-01-26T15:54:24.603Z,277.45
2019-01-26T15:56:54.805Z,240.92
2019-01-26T15:59:26.273Z,243.70
2019-01-26T16:01:58.260Z,201.50
2019-01-26T16:04:29.781Z,198.85
2019-01-26T16:07:01.313Z,177.60
2019-01-26T16:09:33.373Z,178.38
2019-01-26T16:12:04.933Z,164.52
2019-01-26T16:14:37.103Z,143.75
2019-01-26T16:17:08.407Z,136.10
2019-01-26T16:19:39.880Z,145.50
2019-01-26T16:22:11.414Z,163.22
2019-01-26T16:24:42.733Z,184.20
2019-01-26T16:27:14.566Z,198.02
2019-01-26T16:29:48.483Z,202.93
2019-01-26T16:32:19.444Z,236.95
2019-01-26T16:34:50.954Z,239.20
2019-01-26T16:37:22.396Z,291.38
2019-01-26T16:39:55.300Z,335.55
2019-01-26T16:42:27.452Z,362.23
2019-01-26T16:44:58.901Z,334.27
2019-01-26T16:47:30.322Z,344.87
2019-01-26T16:50:01.814Z,315.60
2019-01-26T16:52:32.250Z,267.85
2019-01-26T16:55:04.452Z,230.43
2019-01-26T16:57:35.902Z,219.28
2019-01-26T17:00:10.333Z,179.12
2019-01-26T17:02:41.594Z,181.10
2019-01-26T17:05:13.538Z,142.05
2019-01-26T17:07:44.953Z,132.63
2019-01-26T17:10:19.060Z,141.68
2019-01-26T17:12:50.491Z,129.60
2019-01-26T17:15:21.988Z,155.00
2019-01-26T17:17:54.140Z,131.47
2019-01-26T17:20:27.005Z,137.75
2019-01-26T17:22:58.780Z,153.70
2019-01-26T17:25:29.183Z,195.45
2019-01-26T17:28:03.136Z,167.05
2019-01-26T17:30:39.775Z,160.18
2019-01-26T17:33:10.056Z,134.37
2019-01-26T17:35:40.464Z,183.15
2019-01-26T17:38:13.420Z,169.50
2019-01-26T17:40:44.937Z,175.62
2019-01-26T17:43:15.363Z,215.95
2019-01-26T17:45:46.892Z,197.87
2019-01-26T17:48:18.492Z,143.45
2019-01-26T17:50:50.101Z,229.47
2019-01-26T17:53:22.310Z,192.95
2019-01-26T17:55:53.777Z,191.37
2019-01-26T17:58:25.333Z,187.40
2019-01-26T18:00:58.373Z,159.27
2019-01-26T18:03:29.860Z,148.35
2019-01-26T18:06:01.420Z,130.63
2019-01-26T18:08:32.974Z,122.67
2019-01-26T18:11:05.524Z,110.17
2019-01-26T18:13:37.057Z,124.35
2019-01-26T18:16:09.676Z,115.72
2019-01-26T18:18:44.172Z,101.25
2019-01-26T18:21:15.779Z,111.45
2019-01-26T18:23:47.435Z,101.30
2019-01-26T18:26:18.937Z,125.60
2019-01-26T18:28:50.493Z,110.57
2019-01-26T18:31:22.018Z,133.37
2019-01-26T18:33:56.032Z,136.37
2019-01-26T18:36:27.535Z,145.97
2019-01-26T18:38:59.135Z,164.90
2019-01-26T18:41:29.540Z,163.90
2019-01-26T18:44:01.053Z,104.45
2019-01-26T18:46:31.493Z,146.30
2019-01-26T18:49:03.615Z,129.72
2019-01-26T18:51:35.132Z,143.70
2019-01-26T18:54:06.695Z,143.47
2019-01-26T18:56:38.212Z,116.12
2019-01-26T18:59:10.814Z,113.92
2019-01-26T19:01:42.914Z,145.53
2019-01-26T19:04:15.732Z,142.85
2019-01-26T19:06:47.294Z,147.32
2019-01-26T19:09:19.429Z,153.90
2019-01-26T19:11:50.852Z,127.87
2019-01-26T19:14:22.389Z,160.28
2019-01-26T19:16:55.136Z,130.57
2019-01-26T19:19:26.733Z,157.88
2019-01-26T19:21:58.333Z,121.87
2019-01-26T19:25:40.495Z,108.20
2019-01-26T19:28:12.097Z,114.82
2019-01-26T19:30:43.623Z,123.33
2019-01-26T19:33:15.230Z,138.22
2019-01-26T19:35:50.621Z,136.28
2019-01-26T19:38:22.115Z,145.77
2019-01-26T19:40:53.745Z,124.45
2019-01-26T19:43:24.591Z,149.93
2019-01-26T19:45:56.055Z,116.40
2019-01-26T19:48:27.672Z,145.80
2019-01-26T19:50:57.462Z,124.70
2019-01-26T19:53:28.983Z,168.00
2019-01-26T19:56:00.572Z,114.22
2019-01-26T19:58:32.134Z,92.90
2019-01-26T20:01:03.774Z,108.92
2019-01-26T20:03:36.564Z,169.15
2019-01-26T20:06:08.172Z,203.07
2019-01-26T20:08:39.173Z,171.85
2019-01-26T20:11:10.772Z,131.10
2019-01-26T20:13:42.893Z,160.00
2019-01-26T20:16:13.392Z,172.50
2019-01-26T20:18:44.944Z,181.15
2019-01-26T20:21:17.751Z,177.50
2019-01-26T20:23:47.220Z,177.55
2019-01-26T20:26:18.784Z,204.90
2019-01-26T20:28:51.816Z,140.43
2019-01-26T20:31:23.864Z,168.90
2019-01-26T20:33:55.302Z,139.07
2019-01-26T20:36:26.875Z,178.32
2019-01-26T20:38:58.561Z,193.47
2019-01-26T20:41:30.104Z,163.62
2019-01-26T20:44:01.629Z,204.75
2019-01-26T20:46:33.212Z,213.72
2019-01-26T20:49:04.784Z,158.35
2019-01-26T20:51:36.213Z,129.30
2019-01-26T20:54:06.672Z,231.78
2019-01-26T20:56:38.175Z,206.05
2019-01-26T20:59:08.587Z,212.97
2019-01-26T21:01:38.922Z,183.70
2019-01-26T21:04:09.352Z,232.40
2019-01-26T21:06:39.554Z,209.92
2019-01-26T21:09:09.975Z,165.88
2019-01-26T21:11:44.724Z,115.70
2019-01-26T21:14:16.254Z,179.03
2019-01-26T21:16:46.693Z,197.70
2019-01-26T21:19:18.180Z,215.05
2019-01-26T21:21:48.421Z,210.13
2019-01-26T21:24:21.070Z,162.90
2019-01-26T21:26:52.493Z,198.72
2019-01-26T21:29:23.934Z,180.80
2019-01-26T21:31:54.253Z,159.05
2019-01-26T21:34:24.681Z,163.25
2019-01-26T21:36:56.109Z,137.92
2019-01-26T21:39:28.739Z,187.07
2019-01-26T21:42:00.627Z,181.35
2019-01-26T21:44:32.083Z,163.32
2019-01-26T21:47:03.613Z,153.53
2019-01-26T21:49:34.972Z,220.12
2019-01-26T21:52:06.358Z,213.52
2019-01-26T21:54:37.673Z,182.17
2019-01-26T21:57:09.052Z,156.18
2019-01-26T21:59:41.703Z,152.27
2019-01-26T22:02:13.021Z,170.35
2019-01-26T22:04:44.313Z,295.40
2019-01-26T22:07:15.612Z,287.60
2019-01-26T22:09:46.830Z,170.82
2019-01-26T22:12:18.653Z,171.77
2019-01-26T22:14:51.133Z,217.87
2019-01-26T22:17:22.332Z,170.15
2019-01-26T22:19:54.779Z,195.43
2019-01-26T22:22:24.992Z,192.47
2019-01-26T22:24:56.893Z,204.75
2019-01-26T22:27:28.102Z,203.12
2019-01-26T22:30:01.337Z,172.78
2019-01-26T22:32:32.633Z,223.28
2019-01-26T22:35:02.653Z,183.07
2019-01-26T22:37:33.853Z,212.85
2019-01-26T22:40:03.946Z,213.80
2019-01-26T22:42:35.138Z,187.07
2019-01-26T22:45:07.215Z,183.50
2019-01-26T22:47:37.249Z,188.22
2019-01-26T22:50:11.677Z,240.37
2019-01-26T22:52:42.984Z,269.50
2019-01-26T22:55:16.512Z,230.98
2019-01-26T22:57:47.873Z,226.82
2019-01-26T23:00:52.853Z,240.30
2019-01-26T23:03:53.155Z,240.92
2019-01-26T23:06:42.493Z,231.35
2019-01-26T23:09:28.892Z,242.32
2019-01-26T23:12:09.292Z,233.15
2019-01-26T23:15:00.246Z,176.47
2019-01-26T23:17:40.656Z,114.22
2019-01-26T23:20:25.782Z,210.88
2019-01-26T23:23:17.109Z,226.40
2019-01-26T23:25:51.455Z,161.85
2019-01-26T23:28:37.403Z,171.77
2019-01-26T23:31:19.309Z,194.37
2019-01-26T23:33:50.492Z,175.32
2019-01-26T23:36:21.694Z,151.70
2019-01-26T23:38:51.228Z,165.90
2019-01-26T23:41:22.653Z,192.62
2019-01-26T23:43:53.852Z,184.35
2019-01-26T23:46:25.053Z,182.43
2019-01-26T23:48:56.286Z,166.43
2019-01-26T23:51:27.063Z,156.63
2019-01-26T23:53:58.341Z,145.02
2019-01-26T23:56:29.533Z,142.13
2019-01-26T23:59:01.373Z,166.25
